createdAt,value
2022-12-17T00:01:20.889Z,39.47
2022-12-17T00:04:06.310Z,40.77
2022-12-17T00:06:51.669Z,31.07
2022-12-17T00:09:37.115Z,33.77
2022-12-17T00:12:22.393Z,34.20
2022-12-17T00:15:07.776Z,33.30
2022-12-17T00:17:52.972Z,32.03
2022-12-17T00:20:39.166Z,40.23
2022-12-17T00:23:24.617Z,39.30
2022-12-17T00:26:10.825Z,39.30
2022-12-17T00:28:56.306Z,44.63
2022-12-17T00:31:42.231Z,33.33
2022-12-17T00:34:27.469Z,38.90
2022-12-17T00:37:12.812Z,38.93
2022-12-17T00:40:14.914Z,39.07
2022-12-17T00:43:00.288Z,50.53
2022-12-17T00:45:45.852Z,39.17
2022-12-17T00:48:31.034Z,38.90
2022-12-17T00:51:16.404Z,38.83
2022-12-17T00:54:01.615Z,30.80
2022-12-17T00:56:46.864Z,30.50
2022-12-17T00:59:31.984Z,28.70
2022-12-17T01:02:18.458Z,35.40
2022-12-17T01:05:04.614Z,36.53
2022-12-17T01:07:49.841Z,35.27
2022-12-17T01:10:36.404Z,42.40
2022-12-17T01:13:21.623Z,36.23
2022-12-17T01:16:20.441Z,40.03
2022-12-17T01:19:05.354Z,36.00
2022-12-17T01:21:50.613Z,34.97
2022-12-17T01:24:36.308Z,37.20
2022-12-17T01:27:21.435Z,40.83
2022-12-17T01:30:06.781Z,44.70
2022-12-17T01:32:52.099Z,47.87
2022-12-17T01:35:37.868Z,44.67
2022-12-17T01:38:32.444Z,50.77
2022-12-17T01:41:18.300Z,46.03
2022-12-17T01:44:03.606Z,51.50
2022-12-17T01:46:52.453Z,45.77
2022-12-17T01:49:41.258Z,49.33
2022-12-17T01:52:27.679Z,46.80
2022-12-17T01:55:12.790Z,41.80
2022-12-17T01:57:58.096Z,52.30
2022-12-17T02:00:43.304Z,57.50
2022-12-17T02:03:36.508Z,52.90
2022-12-17T02:06:31.175Z,50.73
2022-12-17T02:09:42.639Z,55.77
2022-12-17T02:12:49.414Z,60.30
2022-12-17T02:15:47.660Z,63.53
2022-12-17T02:18:46.543Z,57.90
2022-12-17T02:21:32.030Z,68.53
2022-12-17T02:24:46.689Z,61.67
2022-12-17T02:27:32.894Z,57.53
2022-12-17T02:30:23.068Z,59.77
2022-12-17T02:33:09.418Z,52.00
2022-12-17T02:36:11.970Z,52.30
2022-12-17T02:38:57.088Z,62.20
2022-12-17T02:42:20.509Z,56.67
2022-12-17T02:45:06.127Z,55.63
2022-12-17T02:47:51.428Z,53.03
2022-12-17T02:50:36.725Z,58.07
2022-12-17T02:53:23.163Z,54.40
2022-12-17T02:56:08.903Z,47.77
2022-12-17T02:58:56.376Z,57.40
2022-12-17T03:01:41.766Z,61.63
2022-12-17T03:04:27.053Z,62.27
2022-12-17T03:07:12.514Z,51.87
2022-12-17T03:09:57.655Z,52.23
2022-12-17T03:12:43.134Z,57.37
2022-12-17T03:15:28.413Z,53.93
2022-12-17T03:18:13.273Z,50.47
2022-12-17T03:20:58.628Z,48.30
2022-12-17T03:23:43.824Z,47.00
2022-12-17T03:26:29.024Z,47.97
2022-12-17T03:29:14.074Z,48.03
2022-12-17T03:31:59.009Z,50.47
2022-12-17T03:34:44.202Z,50.40
2022-12-17T03:37:29.341Z,45.57
2022-12-17T03:40:14.587Z,57.70
2022-12-17T03:42:59.711Z,67.47
2022-12-17T03:45:44.793Z,47.47
2022-12-17T03:48:31.437Z,55.37
2022-12-17T03:51:17.208Z,48.00
2022-12-17T03:54:03.078Z,48.13
2022-12-17T03:56:48.638Z,49.53
2022-12-17T03:59:34.552Z,43.63
2022-12-17T04:02:19.974Z,49.33
2022-12-17T04:05:05.519Z,46.63
2022-12-17T04:07:50.792Z,46.47
2022-12-17T04:10:36.132Z,46.67
2022-12-17T04:13:21.293Z,49.23
2022-12-17T04:16:06.591Z,47.13
2022-12-17T04:18:51.813Z,48.00
2022-12-17T04:21:36.988Z,49.57
2022-12-17T04:24:22.207Z,48.23
2022-12-17T04:27:07.423Z,51.80
2022-12-17T04:29:52.518Z,52.60
2022-12-17T04:32:37.861Z,54.30
2022-12-17T04:35:23.300Z,53.77
2022-12-17T04:38:08.687Z,58.40
2022-12-17T04:40:54.157Z,56.40
2022-12-17T04:43:39.371Z,58.73
2022-12-17T04:46:25.067Z,55.93
2022-12-17T04:49:10.139Z,62.43
2022-12-17T04:51:55.201Z,55.47
2022-12-17T04:54:40.378Z,53.53
2022-12-17T04:57:25.627Z,56.53
2022-12-17T05:00:10.916Z,53.03
2022-12-17T05:02:56.358Z,55.60
2022-12-17T05:05:41.469Z,47.33
2022-12-17T05:08:26.681Z,41.47
2022-12-17T05:11:12.020Z,46.37
2022-12-17T05:13:56.915Z,45.90
2022-12-17T05:16:42.218Z,43.47
2022-12-17T05:19:27.355Z,47.70
2022-12-17T05:22:12.655Z,50.03
2022-12-17T05:24:57.951Z,51.10
2022-12-17T05:27:43.183Z,48.17
2022-12-17T05:30:29.072Z,49.17
2022-12-17T05:33:22.026Z,50.50
2022-12-17T05:36:07.894Z,49.67
2022-12-17T05:38:53.190Z,54.30
2022-12-17T05:41:38.436Z,43.53
2022-12-17T05:44:23.887Z,49.87
2022-12-17T05:47:09.301Z,48.27
2022-12-17T05:49:54.635Z,47.80
2022-12-17T05:52:41.918Z,48.33
2022-12-17T05:55:27.761Z,48.23
2022-12-17T05:58:27.874Z,51.07
2022-12-17T06:01:17.728Z,46.00
2022-12-17T06:04:03.136Z,54.23
2022-12-17T06:06:48.409Z,45.30
2022-12-17T06:09:33.827Z,50.33
2022-12-17T06:12:18.994Z,50.63
2022-12-17T06:15:03.912Z,45.83
2022-12-17T06:17:49.539Z,42.37
2022-12-17T06:20:34.995Z,42.70
2022-12-17T06:23:25.789Z,50.20
2022-12-17T06:26:11.475Z,46.37
2022-12-17T06:28:56.790Z,44.30
2022-12-17T06:31:41.994Z,49.80
2022-12-17T06:34:27.709Z,47.23
2022-12-17T06:37:13.153Z,53.40
2022-12-17T06:39:58.268Z,46.00
2022-12-17T06:42:43.532Z,44.37
2022-12-17T06:45:28.849Z,52.67
2022-12-17T06:48:25.832Z,42.90
2022-12-17T06:51:15.221Z,45.83
2022-12-17T06:54:01.065Z,47.17
2022-12-17T06:56:46.829Z,43.00
2022-12-17T06:59:32.233Z,38.90
2022-12-17T07:02:17.610Z,45.00
2022-12-17T07:05:02.876Z,44.97
2022-12-17T07:07:48.254Z,42.10
2022-12-17T07:10:34.011Z,42.37
2022-12-17T07:13:24.259Z,36.27
2022-12-17T07:16:10.211Z,45.03
2022-12-17T07:18:55.521Z,47.50
2022-12-17T07:21:40.810Z,39.30
2022-12-17T07:24:26.033Z,39.63
2022-12-17T07:27:11.215Z,39.73
2022-12-17T07:29:56.368Z,37.37
2022-12-17T07:32:41.550Z,40.37
2022-12-17T07:35:26.833Z,45.43
2022-12-17T07:38:19.783Z,42.10
2022-12-17T07:41:04.985Z,44.57
2022-12-17T07:43:53.274Z,39.97
2022-12-17T07:46:39.152Z,42.77
2022-12-17T07:49:26.111Z,43.50
2022-12-17T07:52:12.145Z,53.00
2022-12-17T07:54:57.554Z,52.40
2022-12-17T07:57:43.265Z,44.77
2022-12-17T08:00:29.016Z,44.17
2022-12-17T08:03:17.959Z,42.97
2022-12-17T08:06:03.745Z,39.93
2022-12-17T08:08:48.908Z,39.70
2022-12-17T08:11:34.273Z,46.67
2022-12-17T08:14:19.736Z,44.67
2022-12-17T08:17:05.160Z,45.50
2022-12-17T08:19:50.290Z,47.07
2022-12-17T08:22:35.624Z,41.20
2022-12-17T08:25:20.707Z,50.20
2022-12-17T08:28:11.226Z,55.63
2022-12-17T08:31:07.702Z,53.57
2022-12-17T08:33:52.991Z,55.93
2022-12-17T08:36:38.241Z,65.80
2022-12-17T08:39:23.444Z,61.90
2022-12-17T08:42:08.774Z,59.63
2022-12-17T08:44:54.060Z,58.20
2022-12-17T08:47:39.332Z,62.80
2022-12-17T08:50:25.758Z,64.10
2022-12-17T08:53:21.698Z,57.53
2022-12-17T08:56:07.420Z,60.77
2022-12-17T08:58:57.365Z,53.80
2022-12-17T09:01:44.507Z,49.60
2022-12-17T09:04:29.876Z,50.67
2022-12-17T09:07:15.049Z,42.90
2022-12-17T09:10:00.355Z,44.63
2022-12-17T09:12:45.398Z,51.83
2022-12-17T09:15:30.879Z,48.33
2022-12-17T09:18:16.099Z,47.30
2022-12-17T09:21:01.428Z,44.20
2022-12-17T09:23:46.730Z,46.43
2022-12-17T09:26:31.593Z,42.27
2022-12-17T09:29:16.925Z,44.27
2022-12-17T09:32:02.199Z,45.50
2022-12-17T09:34:47.440Z,36.33
2022-12-17T09:37:32.781Z,36.93
2022-12-17T09:40:17.941Z,42.93
2022-12-17T09:43:08.079Z,50.93
2022-12-17T09:46:07.782Z,43.57
2022-12-17T09:49:10.783Z,42.20
2022-12-17T09:51:56.620Z,42.20
2022-12-17T09:55:00.966Z,43.13
2022-12-17T09:57:52.891Z,42.10
2022-12-17T10:00:40.079Z,39.13
2022-12-17T10:03:37.074Z,36.03
2022-12-17T10:06:36.394Z,43.40
2022-12-17T10:09:28.523Z,40.07
2022-12-17T10:12:14.677Z,48.00
2022-12-17T10:14:59.939Z,57.37
2022-12-17T10:17:45.112Z,45.13
2022-12-17T10:20:53.244Z,52.93
2022-12-17T10:23:47.295Z,39.33
2022-12-17T10:26:41.170Z,44.13
2022-12-17T10:29:48.091Z,48.20
2022-12-17T10:32:34.076Z,49.60
2022-12-17T10:35:40.800Z,48.47
2022-12-17T10:38:47.398Z,45.03
2022-12-17T10:41:47.535Z,46.33
2022-12-17T10:44:42.043Z,45.53
2022-12-17T10:47:31.955Z,40.70
2022-12-17T10:50:18.656Z,41.73
2022-12-17T10:53:05.482Z,52.93
2022-12-17T10:55:52.153Z,44.00
2022-12-17T10:58:48.122Z,40.77
2022-12-17T11:01:42.463Z,40.00
2022-12-17T11:04:50.413Z,45.50
2022-12-17T11:07:48.680Z,43.83
2022-12-17T11:10:45.093Z,42.90
2022-12-17T11:13:35.178Z,40.03
2022-12-17T11:16:22.323Z,36.77
2022-12-17T11:19:09.177Z,45.40
2022-12-17T11:21:58.742Z,40.30
2022-12-17T11:24:46.994Z,41.93
2022-12-17T11:27:37.086Z,46.87
2022-12-17T11:30:31.231Z,47.50
2022-12-17T11:33:33.613Z,47.00
2022-12-17T11:36:52.952Z,42.80
2022-12-17T11:39:49.384Z,42.77
2022-12-17T11:42:44.681Z,47.87
2022-12-17T11:45:48.531Z,50.67
2022-12-17T11:48:42.824Z,51.23
2022-12-17T11:51:36.726Z,57.30
2022-12-17T11:54:36.810Z,58.57
2022-12-17T11:57:40.314Z,56.00
2022-12-17T12:00:32.658Z,51.97
2022-12-17T12:03:41.432Z,47.03
2022-12-17T12:06:49.259Z,50.00
2022-12-17T12:10:18.627Z,46.43
2022-12-17T12:13:09.674Z,44.77
2022-12-17T12:15:58.091Z,45.30
2022-12-17T12:18:58.671Z,50.70
2022-12-17T12:21:57.066Z,51.97
2022-12-17T12:24:48.820Z,45.73
2022-12-17T12:27:58.763Z,49.67
2022-12-17T12:30:48.649Z,46.83
2022-12-17T12:33:46.152Z,48.33
2022-12-17T12:36:33.861Z,50.60
2022-12-17T12:39:18.980Z,49.73
2022-12-17T12:42:31.539Z,58.93
2022-12-17T12:45:49.508Z,53.27
2022-12-17T12:48:40.694Z,49.13
2022-12-17T12:51:44.984Z,62.77
2022-12-17T12:54:51.690Z,74.40
2022-12-17T12:57:47.175Z,57.27
2022-12-17T13:00:58.630Z,78.73
2022-12-17T13:03:59.815Z,59.20
2022-12-17T13:06:45.159Z,57.87
2022-12-17T13:09:15.046Z,54.27
2022-12-17T13:11:44.285Z,54.40
2022-12-17T13:14:17.018Z,51.00
2022-12-17T13:16:46.810Z,53.40
2022-12-17T13:19:58.048Z,49.53
2022-12-17T13:22:27.190Z,48.13
2022-12-17T13:24:57.809Z,52.13
2022-12-17T13:27:33.797Z,56.00
2022-12-17T13:30:15.239Z,49.50
2022-12-17T13:33:00.342Z,47.47
2022-12-17T13:35:38.109Z,46.07
2022-12-17T13:38:07.759Z,47.83
2022-12-17T13:40:44.089Z,45.73
2022-12-17T13:43:19.511Z,49.37
2022-12-17T13:45:46.695Z,52.60
2022-12-17T13:48:25.112Z,54.30
2022-12-17T13:51:03.713Z,51.63
2022-12-17T13:53:34.094Z,47.60
2022-12-17T13:56:01.170Z,57.33
2022-12-17T13:58:30.719Z,51.30
2022-12-17T14:01:06.676Z,58.90
2022-12-17T14:03:57.045Z,52.03
2022-12-17T14:06:20.949Z,46.07
2022-12-17T14:08:49.451Z,48.23
2022-12-17T14:11:36.120Z,51.73
2022-12-17T14:14:03.229Z,50.97
2022-12-17T14:16:30.055Z,54.07
2022-12-17T14:18:58.489Z,49.60
2022-12-17T14:21:27.432Z,59.97
2022-12-17T14:23:54.597Z,47.23
2022-12-17T14:26:21.696Z,49.97
2022-12-17T14:28:54.042Z,49.40
2022-12-17T14:31:29.018Z,44.43
2022-12-17T14:34:08.079Z,46.50
2022-12-17T14:36:43.074Z,51.47
2022-12-17T14:39:31.975Z,43.97
2022-12-17T14:42:25.410Z,51.47
2022-12-17T14:45:06.321Z,46.97
2022-12-17T14:47:34.771Z,45.73
2022-12-17T14:50:01.291Z,42.70
2022-12-17T14:52:33.146Z,53.43
2022-12-17T14:54:59.828Z,50.23
2022-12-17T14:57:26.447Z,51.40
2022-12-17T14:59:53.179Z,48.50
2022-12-17T15:02:23.711Z,52.33
2022-12-17T15:04:52.153Z,56.03
2022-12-17T15:07:25.371Z,45.83
2022-12-17T15:09:53.311Z,48.50
2022-12-17T15:12:21.022Z,44.17
2022-12-17T15:14:47.848Z,46.67
2022-12-17T15:17:15.161Z,50.00
2022-12-17T15:19:42.049Z,50.10
2022-12-17T15:22:16.435Z,40.43
2022-12-17T15:24:44.446Z,54.07
2022-12-17T15:27:16.201Z,45.43
2022-12-17T15:29:43.759Z,44.57
2022-12-17T15:32:22.922Z,48.17
2022-12-17T15:34:50.459Z,43.20
2022-12-17T15:37:19.840Z,41.07
2022-12-17T15:39:47.772Z,39.70
2022-12-17T15:42:32.927Z,43.20
2022-12-17T15:44:59.484Z,35.83
2022-12-17T15:47:26.046Z,40.43
2022-12-17T15:49:52.720Z,43.30
2022-12-17T15:52:22.196Z,44.57
2022-12-17T15:54:49.439Z,43.17
2022-12-17T15:57:18.725Z,40.23
2022-12-17T15:59:45.717Z,42.57
2022-12-17T16:02:12.973Z,42.27
2022-12-17T16:04:41.136Z,38.57
2022-12-17T16:07:07.809Z,42.70
2022-12-17T16:09:34.495Z,45.80
2022-12-17T16:12:01.175Z,41.90
2022-12-17T16:14:27.700Z,39.30
2022-12-17T16:16:54.371Z,43.83
2022-12-17T16:19:23.914Z,48.77
2022-12-17T16:21:50.583Z,50.07
2022-12-17T16:24:17.726Z,42.20
2022-12-17T16:26:44.370Z,43.37
2022-12-17T16:29:11.022Z,39.57
2022-12-17T16:31:37.699Z,46.73
2022-12-17T16:34:08.773Z,43.37
2022-12-17T16:36:35.613Z,42.50
2022-12-17T16:39:02.246Z,36.80
2022-12-17T16:41:28.880Z,37.03
2022-12-17T16:43:55.542Z,36.50
2022-12-17T16:46:28.282Z,41.53
2022-12-17T16:48:56.023Z,33.13
2022-12-17T16:51:29.002Z,32.60
2022-12-17T16:53:57.270Z,39.27
2022-12-17T16:56:27.178Z,32.43
2022-12-17T16:58:54.590Z,36.23
2022-12-17T17:01:23.231Z,33.20
2022-12-17T17:06:39.702Z,36.60
2022-12-17T17:09:06.503Z,28.20
2022-12-17T17:11:33.194Z,30.90
2022-12-17T17:14:00.314Z,32.93
2022-12-17T17:16:27.158Z,28.50
2022-12-17T17:18:54.500Z,31.30
2022-12-17T17:21:24.315Z,30.40
2022-12-17T17:24:03.233Z,19.30
2022-12-17T17:26:33.456Z,34.47
2022-12-17T17:29:00.521Z,23.20
2022-12-17T17:32:01.152Z,24.77
2022-12-17T17:34:15.233Z,30.10
2022-12-17T17:36:42.313Z,29.30
2022-12-17T17:39:08.987Z,25.17
2022-12-17T17:41:36.458Z,23.37
2022-12-17T17:44:05.943Z,26.67
2022-12-17T17:46:33.686Z,22.60
2022-12-17T17:49:02.234Z,21.43
2022-12-17T17:52:07.839Z,20.90
2022-12-17T17:54:20.383Z,18.87
2022-12-17T17:56:47.034Z,21.03
2022-12-17T17:59:17.831Z,25.70
2022-12-17T18:01:47.933Z,23.90
2022-12-17T18:04:17.283Z,22.30
2022-12-17T18:07:02.584Z,25.87
2022-12-17T18:09:31.779Z,25.90
2022-12-17T18:12:18.395Z,26.77
2022-12-17T18:15:11.925Z,23.10
2022-12-17T18:17:31.577Z,23.03
2022-12-17T18:19:58.142Z,25.17
2022-12-17T18:22:24.793Z,21.53
2022-12-17T18:24:51.399Z,23.33
2022-12-17T18:27:18.068Z,20.77
2022-12-17T18:29:44.785Z,29.53
2022-12-17T18:32:11.445Z,18.30
2022-12-17T18:34:38.834Z,24.10
2022-12-17T18:37:05.495Z,21.63
2022-12-17T18:39:33.006Z,21.93
2022-12-17T18:42:18.370Z,21.50
2022-12-17T18:44:45.028Z,22.03
2022-12-17T18:47:11.677Z,21.87
2022-12-17T18:49:39.103Z,23.67
2022-12-17T18:52:05.856Z,23.73
2022-12-17T18:54:33.858Z,23.03
2022-12-17T18:57:01.934Z,23.83
2022-12-17T18:59:30.192Z,25.13
2022-12-17T19:01:57.734Z,32.07
2022-12-17T19:04:25.511Z,22.70
2022-12-17T19:06:53.673Z,21.33
2022-12-17T19:09:20.507Z,23.00
2022-12-17T19:11:47.377Z,25.30
2022-12-17T19:14:14.143Z,24.20
2022-12-17T19:16:40.893Z,20.00
2022-12-17T19:19:07.556Z,26.50
2022-12-17T19:21:34.506Z,20.10
2022-12-17T19:24:03.773Z,22.90
2022-12-17T19:26:31.164Z,22.57
2022-12-17T19:28:59.124Z,21.43
2022-12-17T19:31:28.289Z,23.57
2022-12-17T19:33:56.252Z,24.07
2022-12-17T19:36:28.038Z,19.67
2022-12-17T19:38:56.846Z,21.20
2022-12-17T19:41:24.163Z,19.77
2022-12-17T19:43:55.867Z,24.10
2022-12-17T19:46:23.306Z,23.50
2022-12-17T19:48:50.887Z,20.77
2022-12-17T19:51:20.777Z,19.40
2022-12-17T19:53:47.927Z,27.20
2022-12-17T19:56:29.141Z,21.27
2022-12-17T19:59:02.104Z,21.40
2022-12-17T20:01:33.714Z,23.70
2022-12-17T20:04:00.542Z,22.07
2022-12-17T20:06:30.010Z,21.20
2022-12-17T20:09:01.712Z,21.10
2022-12-17T20:11:34.930Z,23.50
2022-12-17T20:14:15.618Z,28.07
2022-12-17T20:16:47.400Z,22.10
2022-12-17T20:19:22.782Z,24.67
2022-12-17T20:21:49.906Z,20.90
2022-12-17T20:24:16.928Z,22.20
2022-12-17T20:26:45.354Z,19.07
2022-12-17T20:29:12.430Z,20.13
2022-12-17T20:31:39.163Z,24.43
2022-12-17T20:34:07.222Z,22.50
2022-12-17T20:36:34.168Z,18.63
2022-12-17T20:39:01.104Z,22.87
2022-12-17T20:41:29.392Z,16.27
2022-12-17T20:43:56.733Z,19.73
2022-12-17T20:46:24.837Z,16.67
2022-12-17T20:48:51.952Z,20.37
2022-12-17T20:51:24.471Z,18.90
2022-12-17T20:53:52.421Z,18.40
2022-12-17T20:56:23.448Z,20.30
2022-12-17T20:58:58.892Z,20.43
2022-12-17T21:01:27.089Z,21.90
2022-12-17T21:03:54.888Z,23.33
2022-12-17T21:06:28.754Z,17.23
2022-12-17T21:08:55.871Z,19.33
2022-12-17T21:11:28.014Z,20.30
2022-12-17T21:13:55.054Z,25.30
2022-12-17T21:16:27.851Z,20.30
2022-12-17T21:18:55.923Z,18.37
2022-12-17T21:21:25.038Z,17.70
2022-12-17T21:23:53.078Z,16.73
2022-12-17T21:26:22.207Z,19.67
2022-12-17T21:28:51.690Z,23.30
2022-12-17T21:31:27.075Z,22.83
2022-12-17T21:33:57.271Z,20.00
2022-12-17T21:36:25.232Z,19.87
2022-12-17T21:38:52.658Z,17.43
2022-12-17T21:41:22.126Z,22.30
2022-12-17T21:43:59.408Z,24.53
2022-12-17T21:46:27.340Z,23.40
2022-12-17T21:48:54.897Z,20.43
2022-12-17T21:51:21.977Z,16.10
2022-12-17T21:53:52.962Z,22.30
2022-12-17T21:56:19.668Z,22.73
2022-12-17T21:58:47.197Z,18.00
2022-12-17T22:01:20.046Z,20.40
2022-12-17T22:03:50.242Z,17.60
2022-12-17T22:06:22.510Z,21.90
2022-12-17T22:08:53.334Z,19.07
2022-12-17T22:11:24.960Z,17.53
2022-12-17T22:14:15.311Z,17.20
2022-12-17T22:16:48.222Z,16.63
2022-12-17T22:19:16.410Z,19.60
2022-12-17T22:21:45.051Z,24.07
2022-12-17T22:24:19.720Z,16.00
2022-12-17T22:26:46.946Z,21.07
2022-12-17T22:29:34.381Z,16.37
2022-12-17T22:32:19.626Z,17.17
2022-12-17T22:36:11.362Z,22.77
2022-12-17T22:40:14.480Z,18.00
2022-12-17T22:44:33.364Z,13.37
2022-12-17T22:44:42.207Z,14.43
2022-12-17T22:46:16.234Z,14.27
2022-12-17T22:48:42.899Z,16.20
2022-12-17T22:51:17.833Z,17.03
2022-12-17T22:53:53.857Z,15.97
2022-12-17T22:56:43.157Z,16.07
2022-12-17T22:59:08.051Z,14.67
2022-12-17T23:01:35.233Z,15.03
2022-12-17T23:04:03.690Z,21.37
2022-12-17T23:06:30.506Z,16.20
2022-12-17T23:08:57.584Z,15.10
2022-12-17T23:11:26.100Z,14.33
2022-12-17T23:13:53.706Z,19.87
2022-12-17T23:16:20.477Z,13.33
2022-12-17T23:18:50.598Z,13.97
2022-12-17T23:21:23.893Z,15.00
2022-12-17T23:23:55.120Z,15.70
2022-12-17T23:26:30.368Z,16.63
2022-12-17T23:29:01.777Z,17.33
2022-12-17T23:31:32.323Z,16.10
2022-12-17T23:33:58.948Z,18.67
2022-12-17T23:36:26.499Z,15.37
2022-12-17T23:38:55.542Z,17.60
2022-12-17T23:41:27.296Z,14.70
2022-12-17T23:43:54.376Z,18.83
2022-12-17T23:46:23.131Z,13.40
2022-12-17T23:48:50.297Z,15.60
2022-12-17T23:51:22.737Z,15.83
2022-12-17T23:53:49.665Z,14.20
2022-12-17T23:56:24.463Z,15.10
2022-12-17T23:58:59.389Z,14.07
